Time;durP1;ratioP1;P1;durP2;ratioP2;P2;SDS_P1;SDS_P2;PMS_P1;PMS_P2;Temp;Humidity;BMP_temperature;BMP_pressure;BME280_temperature;BME280_humidity;BME280_pressure;Samples;Min_cycle;Max_cycle;Signal;HPM_P1;HPM_P2
2022/06/07 00:01:09;;;;;;;0.80;0.70;;;17.80;92.00;;;18.19;61.58;100796.31;5166648;28;20082;-71
2022/06/07 00:03:42;;;;;;;0.95;0.63;;;17.80;92.10;;;18.16;61.70;100794.53;5166812;28;20129;-71
2022/06/07 00:06:16;;;;;;;0.95;0.80;;;17.80;92.30;;;18.14;61.51;100785.75;5166427;28;20042;-71
2022/06/07 00:08:49;;;;;;;0.70;0.65;;;17.70;92.20;;;18.11;61.48;100796.28;5166016;28;20513;-72
2022/06/07 00:11:21;;;;;;;1.83;1.05;;;17.70;92.20;;;18.09;61.86;100790.13;5166236;28;20054;-73
2022/06/07 00:13:53;;;;;;;1.13;0.90;;;17.70;92.50;;;18.07;62.33;100786.63;5166837;28;20054;-71
2022/06/07 00:16:26;;;;;;;0.70;0.70;;;17.70;92.80;;;18.04;62.52;100796.25;5166361;28;20133;-72
2022/06/07 00:18:58;;;;;;;1.58;0.90;;;17.60;93.00;;;17.99;62.72;100797.97;5166075;28;20046;-71
2022/06/07 00:21:31;;;;;;;1.02;0.93;;;17.60;93.20;;;17.95;62.87;100791.81;5166459;28;20153;-71
2022/06/07 00:24:06;;;;;;;0.73;0.73;;;17.60;93.40;;;17.88;63.26;100793.56;5166225;28;20058;-71
2022/06/07 00:26:38;;;;;;;0.63;0.63;;;17.50;93.70;;;17.82;63.57;100793.53;5166418;28;20050;-72
2022/06/07 00:29:10;;;;;;;1.63;0.80;;;17.50;93.90;;;17.76;63.94;100795.25;5181067;28;20050;-71
2022/06/07 00:31:43;;;;;;;0.77;0.77;;;17.40;94.20;;;17.70;64.24;100789.91;5206804;28;20053;-71
2022/06/07 00:34:15;;;;;;;1.75;0.80;;;17.30;94.50;;;17.62;65.01;100788.09;5207020;28;20054;-72
2022/06/07 00:36:49;;;;;;;0.70;0.70;;;17.30;95.10;;;17.55;65.29;100788.94;5206826;28;20056;-71
2022/06/07 00:39:21;;;;;;;1.90;0.80;;;17.20;95.40;;;17.48;65.48;100787.16;5206489;28;20418;-71
2022/06/07 00:41:53;;;;;;;0.85;0.63;;;17.10;95.60;;;17.43;65.63;100788.88;5207055;28;20049;-72
2022/06/07 00:44:34;;;;;;;1.50;0.90;;;17.00;96.20;;;17.37;65.98;100786.19;5206615;28;20045;-71
2022/06/07 00:47:11;;;;;;;1.40;0.90;;;17.00;96.20;;;17.28;66.67;100786.13;5207069;28;20489;-71
2022/06/07 00:49:49;;;;;;;1.23;0.82;;;16.90;96.70;;;17.18;67.16;100790.44;5206189;28;20147;-71
2022/06/07 00:52:27;;;;;;;0.82;0.82;;;16.80;97.20;;;17.13;67.95;100791.25;5206671;28;20053;-70
2022/06/07 00:55:00;;;;;;;0.80;0.80;;;16.80;97.90;;;17.06;68.34;100787.69;5206470;28;20056;-72
2022/06/07 00:57:32;;;;;;;0.68;0.68;;;16.70;98.30;;;17.01;68.81;100789.41;5206763;28;20057;-72
2022/06/07 01:00:08;;;;;;;1.65;1.00;;;16.70;98.80;;;16.97;69.08;100787.63;5206384;28;20481;-71
2022/06/07 01:02:40;;;;;;;1.23;0.93;;;16.60;99.10;;;16.93;69.21;100780.56;5206403;28;20107;-71
2022/06/07 01:05:12;;;;;;;0.82;0.82;;;16.60;99.40;;;16.89;69.65;100777.03;5203570;28;20050;-70
2022/06/07 01:10:45;;;;;;;0.93;0.82;;;16.50;99.90;;;16.83;70.67;100779.63;5165052;28;20177;-71
2022/06/07 01:13:20;;;;;;;;;;;16.50;99.90;;;16.79;71.05;100778.69;5166192;28;20065;-72
2022/06/07 01:15:52;;;;;;;1.02;0.75;;;16.50;99.90;;;16.78;71.08;100779.56;5189774;28;20283;-71
2022/06/07 01:18:24;;;;;;;1.20;1.10;;;16.40;99.90;;;16.78;71.29;100781.31;5205957;28;20053;-71
2022/06/07 01:21:20;;;;;;;0.77;0.77;;;16.40;99.90;;;16.74;71.65;100780.38;5205495;28;20052;-71
2022/06/07 01:23:53;;;;;;;1.35;1.15;;;16.40;99.90;;;16.73;71.58;100778.63;5202107;28;20410;-71
2022/06/07 01:26:25;;;;;;;1.00;1.00;;;16.40;99.90;;;16.74;71.09;100777.75;5206266;28;20067;-72
2022/06/07 01:28:57;;;;;;;0.93;0.70;;;16.40;99.90;;;16.75;70.83;100783.91;5205806;28;20136;-71
2022/06/07 01:31:29;;;;;;;1.30;1.20;;;16.40;99.90;;;16.74;70.72;100784.78;5205833;28;20053;-71
2022/06/07 01:34:02;;;;;;;0.90;0.90;;;16.40;99.90;;;16.73;70.72;100777.75;5205945;28;20146;-71
2022/06/07 01:36:35;;;;;;;1.30;1.20;;;16.40;99.90;;;16.68;70.87;100782.03;5205536;28;20417;-72
2022/06/07 01:41:57;;;;;;;0.85;0.85;;;16.30;99.90;;;16.53;71.66;100781.03;5205950;28;20513;-71
2022/06/07 01:44:32;;;;;;;1.38;0.80;;;16.20;99.90;;;16.46;72.08;100787.09;5205940;28;20104;-72
2022/06/07 01:47:05;;;;;;;;;;;16.10;99.90;;;16.38;72.44;100783.50;5206426;28;20060;-72
2022/06/07 01:49:37;;;;;;;0.80;0.80;;;16.00;99.90;;;16.31;72.65;100773.78;5205913;28;19928;-71
2022/06/07 01:52:12;;;;;;;0.90;0.90;;;16.00;99.90;;;16.27;72.87;100771.97;5195186;28;20046;-71
2022/06/07 01:54:45;;;;;;;0.93;0.82;;;16.00;99.90;;;16.22;73.05;100773.66;5185490;28;20466;-71
2022/06/07 01:57:17;;;;;;;0.98;0.90;;;15.90;99.90;;;16.21;73.42;100770.16;5184925;28;20065;-71
2022/06/07 01:59:49;;;;;;;1.10;0.90;;;15.90;99.90;;;16.22;73.33;100771.03;5184994;28;20053;-71
2022/06/07 02:02:24;;;;;;;1.02;1.02;;;15.90;99.90;;;16.22;73.28;100768.41;5185165;28;20060;-72
2022/06/07 02:04:57;;;;;;;1.23;1.13;;;15.90;99.90;;;16.17;73.38;100770.09;5185227;28;20050;-71
2022/06/07 02:07:30;;;;;;;0.82;0.80;;;15.80;99.90;;;16.13;73.55;100768.31;5185174;28;20053;-71
2022/06/07 02:10:03;;;;;;;1.20;1.10;;;15.80;99.90;;;16.07;74.05;100760.34;5194756;28;20538;-71
2022/06/07 02:12:35;;;;;;;1.10;1.00;;;15.70;99.90;;;16.05;74.26;100760.34;5191648;28;20058;-71
2022/06/07 02:15:08;;;;;;;1.17;1.00;;;15.70;99.90;;;16.04;74.62;100760.28;5195335;28;20514;-71
2022/06/07 02:17:40;;;;;;;1.38;1.23;;;15.70;99.90;;;16.04;74.92;100758.59;5205868;28;20405;-72
2022/06/07 02:20:12;;;;;;;1.15;1.08;;;15.70;99.90;;;16.01;74.96;100751.53;5205384;28;20055;-71
2022/06/07 02:22:46;;;;;;;1.15;1.02;;;15.70;99.90;;;16.00;75.20;100756.75;5209056;28;20049;-71
2022/06/07 02:25:18;;;;;;;1.20;1.10;;;15.60;99.90;;;15.99;75.71;100753.25;5209616;28;20406;-72
2022/06/07 02:27:50;;;;;;;1.20;1.08;;;15.70;99.90;;;15.99;75.98;100747.13;5209248;28;20049;-72
2022/06/07 02:30:22;;;;;;;2.22;1.30;;;15.60;99.90;;;15.99;76.16;100753.25;5208756;28;20063;-71
2022/06/07 02:32:54;;;;;;;1.38;1.00;;;15.60;99.90;;;16.02;76.16;100750.66;5209087;28;20049;-70
2022/06/07 02:35:27;;;;;;;1.45;1.02;;;15.70;99.90;;;16.04;75.83;100755.03;5208959;28;20140;-72
2022/06/07 02:38:02;;;;;;;1.13;1.02;;;15.70;99.90;;;16.04;75.80;100752.41;5209162;28;20077;-72
2022/06/07 02:40:35;;;;;;;1.13;0.82;;;15.70;99.90;;;16.04;75.60;100753.31;5208763;28;20056;-71
2022/06/07 02:43:07;;;;;;;1.48;1.13;;;15.70;99.90;;;16.05;75.47;100743.69;5209025;28;20056;-72
2022/06/07 02:45:39;;;;;;;1.27;0.98;;;15.70;99.90;;;16.05;75.36;100744.56;5208971;28;20049;-72
2022/06/07 02:48:11;;;;;;;0.98;0.98;;;15.70;99.90;;;16.02;75.53;100745.38;5208824;28;20051;-72
2022/06/07 02:50:43;;;;;;;1.40;1.05;;;15.70;99.90;;;16.00;75.54;100741.88;5209005;28;20091;-71
2022/06/07 02:53:17;;;;;;;0.93;0.93;;;15.70;99.90;;;16.00;75.72;100755.03;5208693;28;20085;-71
2022/06/07 02:55:49;;;;;;;0.93;0.82;;;15.70;99.90;;;15.99;75.83;100745.38;5208551;28;20537;-72
2022/06/07 02:58:22;;;;;;;0.95;0.80;;;15.60;99.90;;;15.99;75.80;100745.38;5208621;28;20053;-71
2022/06/07 03:00:56;;;;;;;1.10;1.00;;;15.60;99.90;;;15.99;75.61;100740.13;5208762;28;20502;-72
2022/06/07 03:03:28;;;;;;;1.35;0.93;;;15.70;99.90;;;16.00;75.68;100741.00;5208924;28;20073;-72
2022/06/07 03:06:00;;;;;;;2.65;1.15;;;15.60;99.90;;;15.99;75.89;100741.88;5208278;28;20129;-71
2022/06/07 03:08:34;;;;;;;1.00;1.00;;;15.60;99.90;;;15.96;76.11;100742.69;5208415;28;20056;-71
2022/06/07 03:11:07;;;;;;;1.25;0.95;;;15.60;99.90;;;15.93;76.43;100745.28;5208794;28;20053;-72
2022/06/07 03:13:39;;;;;;;1.13;1.02;;;15.60;99.90;;;15.91;76.79;100740.88;5208795;28;20570;-71
2022/06/07 03:16:11;;;;;;;1.13;1.02;;;15.60;99.90;;;15.90;77.01;100739.97;5208173;28;20046;-70
2022/06/07 03:18:43;;;;;;;1.00;0.93;;;15.60;99.90;;;15.89;77.22;100738.22;5208334;28;20486;-71
2022/06/07 03:21:15;;;;;;;1.30;1.20;;;15.50;99.90;;;15.85;77.38;100741.69;5208605;28;20050;-71
2022/06/07 03:23:49;;;;;;;1.10;1.00;;;15.50;99.90;;;15.83;77.36;100738.16;5208544;28;20049;-71
2022/06/07 03:26:21;;;;;;;;;;;15.50;99.90;;;15.80;77.42;100738.13;5208613;28;20079;-70
2022/06/07 03:28:53;;;;;;;1.77;1.10;;;15.50;99.90;;;15.79;77.56;100741.63;5208059;28;20184;-71
2022/06/07 03:31:26;;;;;;;1.17;1.10;;;15.50;99.90;;;15.78;77.29;100741.56;5208048;28;20049;-71
2022/06/07 03:33:58;;;;;;;1.25;1.02;;;15.50;99.90;;;15.74;77.38;100738.03;5208391;28;20664;-71
2022/06/07 03:36:31;;;;;;;1.30;0.90;;;15.40;99.90;;;15.71;77.74;100738.91;5207714;28;20049;-72
2022/06/07 03:39:09;;;;;;;1.23;0.93;;;15.40;99.90;;;15.70;77.58;100741.47;5207811;28;20492;-70
2022/06/07 03:41:41;;;;;;;1.30;1.20;;;15.40;99.90;;;15.69;77.55;100742.34;5208309;28;20525;-72
2022/06/07 03:44:13;;;;;;;2.38;1.00;;;15.40;99.90;;;15.70;77.50;100745.00;5208012;28;20137;-71
2022/06/07 03:46:47;;;;;;;1.50;1.40;;;15.40;99.90;;;15.72;77.44;100745.03;5208022;28;20395;-71
2022/06/07 03:49:19;;;;;;;1.85;1.10;;;15.40;99.90;;;15.73;77.56;100747.69;5207451;28;20049;-70
2022/06/07 03:51:51;;;;;;;1.08;0.98;;;15.40;99.90;;;15.73;77.43;100752.94;5207966;28;20060;-71
2022/06/07 03:54:25;;;;;;;1.38;1.23;;;15.40;99.90;;;15.71;77.44;100748.50;5208070;28;20049;-72
2022/06/07 03:56:57;;;;;;;1.05;0.95;;;15.40;99.90;;;15.68;77.61;100746.72;5207529;28;20052;-71
2022/06/07 03:59:29;;;;;;;1.23;0.93;;;15.40;99.90;;;15.70;77.55;100757.25;5207196;28;20065;-71
2022/06/07 04:02:01;;;;;;;1.42;1.10;;;15.40;99.90;;;15.72;77.38;100752.91;5207762;28;20050;-70
2022/06/07 04:04:35;;;;;;;1.63;1.35;;;15.40;99.90;;;15.75;76.92;100752.94;5207353;28;20045;-71
2022/06/07 04:09:58;;;;;;;1.58;1.17;;;15.50;99.90;;;15.82;76.59;100757.41;5207331;28;20576;-71
2022/06/07 04:12:30;;;;;;;1.63;1.25;;;15.50;99.90;;;15.87;76.38;100757.47;5207167;28;20046;-71
2022/06/07 04:15:02;;;;;;;1.63;1.30;;;15.50;99.90;;;15.91;75.96;100761.88;5207338;28;20486;-72
2022/06/07 04:17:34;;;;;;;1.45;1.15;;;15.60;99.90;;;15.95;75.88;100766.34;5207325;28;20426;-72
2022/06/07 04:20:10;;;;;;;4.03;1.30;;;15.60;99.90;;;15.98;75.75;100762.00;5206912;28;20529;-72
2022/06/07 04:22:42;;;;;;;1.42;1.10;;;15.70;99.90;;;16.00;75.47;100757.66;5206940;28;20049;-72
2022/06/07 04:25:15;;;;;;;1.50;1.33;;;15.70;99.90;;;16.02;75.30;100761.16;5207366;28;20049;-71
2022/06/07 04:27:48;;;;;;;2.25;0.90;;;15.70;99.90;;;16.04;75.45;100755.94;5207280;28;20041;-71
2022/06/07 04:30:20;;;;;;;1.65;1.20;;;15.70;99.90;;;16.07;75.37;100755.97;5206809;28;20128;-71
2022/06/07 04:32:52;;;;;;;2.00;1.33;;;15.80;99.90;;;16.08;75.23;100760.38;5206982;28;20085;-74
2022/06/07 04:35:25;;;;;;;1.40;1.30;;;15.80;99.90;;;16.11;75.15;100754.28;5206960;28;20059;-71
2022/06/07 04:37:57;;;;;;;1.70;1.60;;;15.80;99.90;;;16.15;75.07;100756.94;5206825;28;20077;-71
2022/06/07 04:40:31;;;;;;;1.90;1.10;;;15.90;99.90;;;16.20;75.10;100764.88;5206487;28;20049;-71
2022/06/07 04:43:03;;;;;;;1.50;1.10;;;15.90;99.90;;;16.24;75.07;100761.44;5206903;28;20125;-72
2022/06/07 04:45:35;;;;;;;1.48;1.17;;;15.90;99.90;;;16.35;75.23;100759.78;5206182;28;20051;-71
2022/06/07 04:48:09;;;;;;;1.90;1.33;;;16.00;99.90;;;16.60;76.64;100760.91;5206683;28;20045;-72
2022/06/07 04:50:41;;;;;;;3.50;1.80;;;16.20;99.90;;;17.16;75.25;100767.59;5206273;28;20060;-72
2022/06/07 04:53:13;;;;;;;1.92;1.45;;;16.60;99.90;;;17.96;72.58;100754.03;5206750;28;20049;-72
2022/06/07 04:55:46;;;;;;;4.00;1.20;;;17.20;99.90;;;18.75;67.48;100758.66;5206325;28;20059;-72
2022/06/07 04:58:18;;;;;;;1.58;1.30;;;17.90;99.90;;;19.61;63.80;100764.75;5225990;22;20114;-82
2022/06/07 05:00:50;;;;;;;3.97;1.20;;;18.60;99.90;;;20.39;59.29;100771.50;5205083;28;20057;-84
2022/06/07 05:03:22;;;;;;;2.45;1.40;;;19.40;98.00;;;21.04;56.19;100770.19;5194212;28;20050;-79
2022/06/07 05:05:54;;;;;;;3.22;1.20;;;20.00;96.10;;;21.38;54.53;100769.00;5204454;28;20050;-79
2022/06/07 05:08:26;;;;;;;1.20;1.10;;;20.50;94.50;;;21.52;53.62;100765.34;5190792;28;20046;-80
2022/06/07 05:11:00;;;;;;;2.17;1.15;;;20.70;93.30;;;21.33;52.53;100772.63;5204770;28;20054;-81
2022/06/07 05:13:32;;;;;;;2.10;1.10;;;20.70;91.80;;;21.14;54.09;100772.75;5193028;28;20105;-79
2022/06/07 05:16:05;;;;;;;1.20;1.10;;;20.60;92.50;;;21.20;53.65;100770.94;5192184;28;20069;-80
2022/06/07 05:18:38;;;;;;;2.13;1.20;;;20.50;92.20;;;21.22;53.28;100772.66;5191639;28;20052;-80
2022/06/07 05:21:12;;;;;;;3.35;1.20;;;20.60;92.10;;;21.50;52.83;100773.31;5190442;28;20425;-81
2022/06/07 05:23:44;;;;;;;;;;;20.70;91.50;;;21.90;51.92;100770.19;5191606;28;20054;-79
2022/06/07 05:26:24;;;;;;;2.60;1.23;;;21.00;91.00;;;22.55;49.60;100772.91;5186221;28;19925;-80
2022/06/07 05:28:57;;;;;;;2.30;1.00;;;21.50;88.90;;;22.72;48.38;100778.84;5192856;28;20511;-79
2022/06/07 05:31:29;;;;;;;2.88;1.30;;;21.80;86.20;;;22.65;48.61;100774.53;5196590;28;20052;-80
2022/06/07 05:34:01;;;;;;;1.67;1.08;;;21.90;85.40;;;22.44;48.61;100775.75;5197381;28;20117;-79
2022/06/07 05:36:33;;;;;;;2.75;1.48;;;21.70;84.50;;;22.34;49.47;100785.59;5197214;28;20336;-80
2022/06/07 05:39:06;;;;;;;1.77;1.00;;;21.60;85.20;;;22.59;49.41;100775.50;5196006;28;20133;-79
2022/06/07 05:41:40;;;;;;;1.88;1.10;;;21.80;85.70;;;22.71;47.65;100771.78;5195735;28;20060;-79
2022/06/07 05:44:12;;;;;;;1.30;1.05;;;21.90;83.30;;;22.48;48.10;100778.31;5168609;28;20138;-78
2022/06/07 05:46:44;;;;;;;1.52;0.93;;;21.80;82.90;;;22.06;49.26;100784.19;5162628;28;20539;-78
2022/06/07 05:49:17;;;;;;;2.00;1.00;;;21.50;83.20;;;21.65;50.39;100788.19;5163771;28;20114;-80
2022/06/07 05:51:49;;;;;;;3.00;1.27;;;21.10;84.40;;;21.32;51.09;100784.09;5170682;28;20138;-80
2022/06/07 05:54:22;;;;;;;2.30;0.98;;;20.90;85.30;;;20.95;52.64;100783.50;5160753;28;20045;-79
2022/06/07 05:56:55;;;;;;;2.30;1.10;;;20.50;86.90;;;20.70;53.90;100783.69;5173429;28;20085;-78
2022/06/07 05:59:27;;;;;;;2.83;1.20;;;20.30;88.80;;;20.44;54.39;100785.59;5170885;28;20056;-78
2022/06/07 06:02:00;;;;;;;1.75;1.20;;;20.10;89.30;;;20.27;55.04;100789.19;5163277;28;20072;-80
2022/06/07 06:04:32;;;;;;;2.72;1.45;;;19.90;90.40;;;20.11;55.70;100787.53;5164867;28;20149;-81
2022/06/07 06:07:05;;;;;;;1.23;1.13;;;19.70;90.60;;;20.27;57.07;100780.38;5163766;28;20089;-80
2022/06/07 06:12:28;;;;;;;3.08;1.02;;;19.90;91.50;;;20.60;55.74;100781.97;5166948;28;20050;-79
2022/06/07 06:15:00;;;;;;;5.88;2.03;;;20.00;91.40;;;20.55;56.03;100789.09;5164823;28;20134;-80
2022/06/07 06:17:32;;;;;;;4.03;1.30;;;20.00;91.50;;;20.42;56.02;100780.31;5167017;28;20420;-80
2022/06/07 06:20:05;;;;;;;4.18;1.10;;;19.90;91.50;;;20.28;56.37;100780.38;5168543;28;20042;-80
2022/06/07 06:22:39;;;;;;;1.75;1.25;;;19.80;91.60;;;20.47;57.21;100781.16;5167638;28;20084;-80
2022/06/07 06:25:11;;;;;;;2.25;1.33;;;19.90;92.30;;;21.16;56.33;100791.28;5166082;28;20523;-80
2022/06/07 06:27:44;;;;;;;2.88;1.13;;;20.30;92.50;;;22.11;52.75;100785.03;5165491;28;20054;-80
2022/06/07 06:30:16;;;;;;;1.60;0.90;;;21.00;90.90;;;22.93;50.37;100781.19;5167671;28;20052;-81
2022/06/07 06:32:48;;;;;;;1.67;1.02;;;21.80;88.90;;;23.23;47.39;100784.25;5166559;28;20129;-80
2022/06/07 06:35:21;;;;;;;1.55;1.10;;;22.20;83.70;;;23.39;47.84;100782.19;5165867;28;20287;-80
2022/06/07 06:37:53;;;;;;;2.05;0.90;;;22.40;83.40;;;23.97;46.19;100784.66;5169192;28;20133;-81
2022/06/07 06:40:25;;;;;;;3.30;1.20;;;22.90;81.60;;;24.25;44.32;100778.72;5175948;28;20042;-81
2022/06/07 06:42:59;;;;;;;1.70;0.80;;;23.20;77.80;;;24.13;44.53;100774.56;5167680;28;20081;-81
2022/06/07 06:45:31;;;;;;;1.85;1.15;;;23.30;77.60;;;23.81;45.18;100781.44;5169245;28;20591;-81
2022/06/07 06:48:04;;;;;;;1.58;0.90;;;23.10;77.20;;;23.42;46.33;100769.72;5174204;28;20056;-83
2022/06/07 06:50:36;;;;;;;2.58;1.00;;;22.80;78.20;;;23.22;46.82;100767.44;5173516;28;20077;-82
2022/06/07 06:53:09;;;;;;;1.63;1.08;;;22.60;78.70;;;23.15;46.26;100760.47;5175718;28;20050;-83
2022/06/07 06:55:43;;;;;;;2.47;0.80;;;22.40;78.00;;;23.46;45.35;100770.53;5175869;28;20137;-84
2022/06/07 06:58:18;;;;;;;2.85;1.10;;;22.60;77.20;;;23.76;43.89;100774.44;5174299;28;20076;-82
2022/06/07 07:00:50;;;;;;;1.20;0.77;;;22.80;75.40;;;23.92;44.33;100775.00;5174379;28;20117;-80
2022/06/07 07:03:22;;;;;;;1.83;0.82;;;22.90;76.00;;;23.95;45.15;100780.28;5181029;28;20144;-83
2022/06/07 07:05:56;;;;;;;1.27;0.77;;;23.00;76.40;;;23.89;44.88;100780.41;5197260;28;20141;-82
2022/06/07 07:08:29;;;;;;;1.80;0.80;;;23.00;76.10;;;23.76;43.98;100780.63;5196091;28;20141;-84
2022/06/07 07:11:11;;;;;;;0.95;0.73;;;22.90;74.80;;;23.85;43.85;100779.56;5197332;28;20073;-83
2022/06/07 07:13:47;;;;;;;0.85;0.70;;;23.00;74.50;;;24.23;43.17;100781.44;5195749;28;20077;-82
2022/06/07 07:16:23;;;;;;;1.77;0.70;;;23.20;73.80;;;24.88;42.55;100778.19;5193464;28;20484;-81
2022/06/07 07:18:55;;;;;;;1.52;0.80;;;23.60;73.40;;;25.40;41.02;100768.91;5188129;28;20142;-82
2022/06/07 07:21:33;;;;;;;1.90;0.80;;;24.10;71.80;;;25.54;40.77;100772.06;5180087;28;20504;-82
2022/06/07 07:24:09;;;;;;;2.00;0.60;;;24.30;70.50;;;25.42;40.40;100772.41;5191220;28;20057;-82
2022/06/07 07:26:43;;;;;;;1.02;0.70;;;24.40;69.60;;;24.99;40.98;100768.16;5192013;28;20057;-82
2022/06/07 07:29:19;;;;;;;;;;;24.10;69.50;;;24.59;41.83;100774.44;5192196;28;20050;-85
2022/06/07 07:31:51;;;;;;;1.85;0.68;;;23.90;70.20;;;24.35;42.67;100772.34;5192002;28;19931;-83
2022/06/07 07:34:23;;;;;;;3.55;1.00;;;23.60;71.10;;;24.20;43.42;100780.63;5191928;28;20042;-81
2022/06/07 07:36:57;;;;;;;2.63;1.00;;;23.40;71.80;;;24.33;43.18;100779.47;5191567;28;20053;-82
2022/06/07 07:39:29;;;;;;;1.35;0.70;;;23.40;72.10;;;24.59;42.80;100779.78;5190872;28;20054;-82
2022/06/07 07:42:02;;;;;;;1.63;0.77;;;23.50;71.90;;;25.23;41.81;100781.78;5191601;28;20522;-82
2022/06/07 07:44:37;;;;;;;1.88;0.98;;;23.90;71.60;;;25.81;40.29;100774.91;5192047;28;20056;-83
2022/06/07 07:47:09;;;;;;;0.93;0.70;;;24.40;70.10;;;25.75;39.96;100777.75;5192463;28;20108;-83
2022/06/07 07:49:41;;;;;;;1.08;0.80;;;24.50;68.70;;;25.55;39.44;100767.59;5191178;28;20046;-82
2022/06/07 07:52:18;;;;;;;1.05;0.60;;;24.40;68.00;;;25.34;40.55;100774.41;5192062;28;20046;-84
2022/06/07 07:54:50;;;;;;;1.10;0.80;;;24.30;68.70;;;25.46;41.20;100781.22;5192130;28;20492;-83
2022/06/07 07:57:23;;;;;;;1.38;0.60;;;24.30;69.60;;;25.57;40.98;100772.00;5191824;28;20512;-83
2022/06/07 07:59:56;;;;;;;2.70;0.77;;;24.40;69.60;;;25.34;40.64;100779.72;5191421;28;20078;-82
2022/06/07 08:02:28;;;;;;;2.03;0.82;;;24.30;68.90;;;25.02;41.71;100770.72;5191401;28;20444;-83
2022/06/07 08:05:00;;;;;;;3.30;0.93;;;24.10;69.30;;;24.83;42.33;100778.31;5192729;28;20050;-83
2022/06/07 08:07:33;;;;;;;2.05;0.90;;;23.90;71.00;;;24.56;42.95;100771.84;5192632;28;20053;-82
2022/06/07 08:10:07;;;;;;;1.48;0.85;;;23.70;70.90;;;24.54;43.27;100771.00;5195068;28;20053;-83
2022/06/07 08:12:39;;;;;;;1.00;0.73;;;23.50;71.20;;;24.71;43.42;100767.06;5192962;28;20053;-76
2022/06/07 08:15:15;;;;;;;3.65;0.95;;;23.60;72.00;;;24.75;43.78;100763.41;5188230;28;20056;-78
2022/06/07 08:17:47;;;;;;;1.33;0.90;;;23.60;72.50;;;24.90;43.69;100773.69;5187894;28;20137;-77
2022/06/07 08:20:20;;;;;;;2.60;1.13;;;23.70;72.80;;;25.42;42.96;100777.72;5181392;28;20042;-77
2022/06/07 08:22:52;;;;;;;2.05;1.00;;;24.00;72.80;;;25.91;41.88;100758.59;5176579;28;20501;-75
2022/06/07 08:25:24;;;;;;;2.33;1.20;;;24.30;71.70;;;26.03;41.33;100756.50;5172178;28;20397;-77
2022/06/07 08:27:56;;;;;;;2.05;0.75;;;24.50;71.00;;;26.39;41.07;100762.50;5178601;28;20126;-77
2022/06/07 08:30:30;;;;;;;1.35;0.73;;;24.70;70.80;;;26.50;39.95;100757.75;5179370;28;20046;-77
2022/06/07 08:37:32;;;;;;;;;;;24.80;69.20;;;26.58;40.26;100747.66;5178532;28;20050;-78
2022/06/07 08:38:44;;;;;;;1.30;0.80;;;25.80;69.50;;;29.45;35.07;100736.78;5194640;28;20131;-77
2022/06/07 08:41:36;;;;;;;2.05;0.65;;;26.60;66.10;;;29.34;35.41;100741.78;5193367;28;20406;-58
2022/06/07 08:44:15;;;;;;;2.25;1.00;;;26.90;65.30;;;29.25;35.28;100739.47;5181832;28;20064;-60
2022/06/07 08:46:47;;;;;;;1.55;0.80;;;27.00;64.70;;;29.05;35.38;100744.84;5182246;28;20073;-59
2022/06/07 08:49:20;;;;;;;3.35;0.80;;;27.00;64.20;;;28.72;35.26;100745.28;5182374;28;20529;-59
2022/06/07 08:52:01;;;;;;;2.78;0.85;;;26.90;63.20;;;28.54;36.18;100746.03;5182704;28;20455;-62
2022/06/07 08:54:39;;;;;;;1.13;0.77;;;26.70;64.00;;;28.23;36.22;100741.84;5182474;28;20054;-59
2022/06/07 08:57:24;;;;;;;2.65;0.70;;;26.60;63.70;;;27.58;37.32;100732.69;5182526;28;20050;-59
2022/06/07 09:00:02;;;;;;;2.92;0.80;;;26.20;64.10;;;26.93;38.54;100742.97;5180443;28;20177;-59
2022/06/07 09:03:14;;;;;;;1.10;0.73;;;25.80;64.90;;;26.40;39.38;100743.78;5111095;28;20047;-60
2022/06/07 09:05:53;;;;;;;2.05;0.82;;;25.40;65.60;;;25.97;40.38;100744.19;5136378;28;20058;-60
2022/06/07 09:08:27;;;;;;;1.75;0.88;;;25.10;66.30;;;25.45;41.10;100742.97;5142252;28;20513;-70
2022/06/07 09:13:56;;;;;;;1.20;0.88;;;24.30;67.50;;;24.33;43.33;100739.50;5141953;28;20436;-70
2022/06/07 09:16:28;;;;;;;2.33;0.75;;;23.80;68.60;;;23.90;44.46;100734.22;5141804;28;20057;-71
2022/06/07 09:19:00;;;;;;;2.50;0.90;;;23.40;70.40;;;23.54;44.84;100732.25;5141633;28;20204;-70
2022/06/07 09:21:32;;;;;;;3.15;0.90;;;23.00;70.90;;;23.13;45.16;100735.66;5141662;28;20082;-69
2022/06/07 09:24:11;;;;;;;1.92;0.73;;;22.60;70.80;;;22.96;46.09;100730.66;5141906;28;20502;-69
2022/06/07 09:26:43;;;;;;;1.42;1.05;;;22.40;71.80;;;22.97;46.53;100718.25;5141970;28;20051;-70
2022/06/07 09:29:21;;;;;;;2.05;1.05;;;22.30;72.60;;;22.89;46.79;100726.38;5141196;28;20078;-70
2022/06/07 09:31:53;;;;;;;2.78;0.90;;;22.20;73.10;;;22.90;47.37;100725.44;5141829;28;20054;-69
2022/06/07 09:34:28;;;;;;;1.67;0.80;;;22.20;73.80;;;22.92;47.53;100726.28;5141945;28;20101;-69
2022/06/07 09:37:14;;;;;;;1.95;0.80;;;22.20;74.20;;;23.08;47.94;100718.91;5141512;28;20051;-70
2022/06/07 09:39:55;;;;;;;1.27;0.80;;;22.30;74.70;;;23.26;47.54;100721.25;5147782;28;20047;-70
2022/06/07 09:42:30;;;;;;;1.70;0.80;;;22.50;75.50;;;23.37;47.36;100714.88;5161719;28;20150;-70
2022/06/07 09:45:20;;;;;;;1.50;0.90;;;22.60;74.60;;;23.37;48.20;100723.72;5161275;28;20066;-70
2022/06/07 09:47:52;;;;;;;2.17;1.10;;;22.60;75.20;;;23.34;48.85;100717.56;5161390;28;20050;-70
2022/06/07 09:50:31;;;;;;;3.53;1.10;;;22.60;76.10;;;23.28;48.99;100722.13;5160759;28;20050;-69
2022/06/07 09:53:11;;;;;;;5.35;1.23;;;22.60;76.40;;;23.23;48.80;100717.78;5147709;28;20055;-70
2022/06/07 09:55:54;;;;;;;1.85;0.90;;;22.50;76.40;;;23.08;48.72;100720.69;5146427;28;20082;-70
2022/06/07 09:58:44;;;;;;;2.78;1.08;;;22.40;76.00;;;22.94;49.71;100715.63;5152205;28;20046;-70
2022/06/07 10:01:25;;;;;;;1.55;1.20;;;22.30;77.10;;;22.72;51.01;100723.94;5166697;28;20046;-70
2022/06/07 10:04:07;;;;;;;3.45;1.05;;;22.20;78.40;;;22.54;51.56;100712.72;5160317;28;20480;-70
2022/06/07 10:06:47;;;;;;;1.50;0.88;;;22.10;78.90;;;22.44;51.71;100712.00;5160199;28;20129;-70
2022/06/07 10:09:54;;;;;;;2.92;1.00;;;22.00;79.40;;;22.38;51.94;100707.66;5163754;28;20057;-70
2022/06/07 10:12:37;;;;;;;2.15;0.80;;;21.80;79.60;;;22.45;52.98;100711.97;5152438;28;20092;-69
2022/06/07 10:15:27;;;;;;;1.63;0.73;;;21.90;81.10;;;22.63;53.58;100701.97;5157828;28;20129;-55
2022/06/07 10:18:14;;;;;;;1.05;0.93;;;22.00;82.20;;;22.82;53.65;100700.75;5154901;28;20062;-55
2022/06/07 10:21:08;;;;;;;2.50;0.93;;;22.10;83.20;;;22.94;53.72;100697.91;5148302;28;20051;-55
2022/06/07 10:24:21;;;;;;;1.98;0.98;;;22.20;83.20;;;23.16;53.09;100698.41;5142778;28;20054;-55
2022/06/07 10:27:12;;;;;;;2.05;0.90;;;22.40;83.00;;;23.43;52.65;100688.16;5159941;28;20226;-54
2022/06/07 10:30:15;;;;;;;3.15;0.95;;;22.60;83.00;;;23.85;52.51;100683.75;5161526;28;20050;-55
2022/06/07 10:33:09;;;;;;;2.17;1.10;;;22.90;83.50;;;24.22;51.68;100690.94;5126624;29;20059;-56
2022/06/07 10:35:49;;;;;;;1.35;0.70;;;23.20;83.10;;;24.56;49.54;100683.91;5127359;29;20126;-55
2022/06/07 10:38:45;;;;;;;1.77;0.75;;;23.50;80.80;;;25.08;46.82;100674.59;5130156;28;20051;-55
2022/06/07 10:41:31;;;;;;;0.77;0.68;;;23.90;77.60;;;25.52;44.35;100669.84;5146215;28;20056;-55
2022/06/07 10:44:13;;;;;;;1.88;0.70;;;24.30;74.50;;;25.89;43.76;100672.34;5146519;28;20046;-54
2022/06/07 10:46:45;;;;;;;2.05;0.77;;;24.70;73.60;;;26.09;43.06;100674.38;5161199;28;20065;-53
2022/06/07 10:49:26;;;;;;;1.00;0.80;;;24.90;72.80;;;26.22;41.88;100670.41;5151016;28;20052;-54
2022/06/07 10:52:21;;;;;;;1.85;0.60;;;25.10;70.80;;;26.45;40.79;100666.13;5151198;28;20047;-56
2022/06/07 10:55:03;;;;;;;1.27;0.75;;;25.30;69.30;;;26.53;39.90;100669.44;5159506;28;20132;-56
2022/06/07 10:57:46;;;;;;;0.70;0.70;;;25.40;67.70;;;26.42;40.57;100661.78;5237503;23;20038;-55
2022/06/07 11:00:32;;;;;;;1.00;0.70;;;25.40;68.10;;;26.18;40.83;100663.41;5130384;28;20069;-54
2022/06/07 11:03:26;;;;;;;1.98;0.55;;;25.30;68.10;;;26.00;41.32;100650.63;5145674;28;20499;-54